Time;durP1;ratioP1;P1;durP2;ratioP2;P2;SDS_P1;SDS_P2;PMS_P1;PMS_P2;Temp;Humidity;BMP_temperature;BMP_pressure;BME280_temperature;BME280_humidity;BME280_pressure;Samples;Min_cycle;Max_cycle;Signal;HPM_P1;HPM_P2
2022/07/17 00:02:11;;;;;;;6.15;2.38;;;;;;;14.52;73.54;102579.31;5091887;28;20366;-59
2022/07/17 00:04:36;;;;;;;4.65;2.47;;;;;;;14.61;73.28;102578.41;5091882;28;20054;-59
2022/07/17 00:07:02;;;;;;;4.75;2.53;;;;;;;14.59;73.20;102575.75;5091817;28;20376;-59
2022/07/17 00:09:27;;;;;;;5.75;2.20;;;;;;;14.72;72.97;102575.75;5091783;28;20044;-58
2022/07/17 00:11:52;;;;;;;6.15;2.00;;;;;;;14.62;73.22;102575.75;5091448;28;20093;-59
2022/07/17 00:14:18;;;;;;;7.20;2.50;;;;;;;14.52;73.50;102587.22;5091682;28;20042;-59
2022/07/17 00:16:43;;;;;;;6.75;2.33;;;;;;;14.50;73.56;102585.47;5091522;28;20105;-59
2022/07/17 00:19:08;;;;;;;5.35;2.35;;;;;;;14.50;73.69;102581.06;5091584;28;20050;-58
2022/07/17 00:21:34;;;;;;;5.68;2.50;;;;;;;14.51;73.81;102584.59;5092009;28;20036;-59
2022/07/17 00:23:59;;;;;;;4.05;2.13;;;;;;;14.54;73.47;102592.47;5091552;28;20384;-58
2022/07/17 00:26:24;;;;;;;12.52;3.28;;;;;;;14.39;74.04;102589.81;5091450;28;20063;-58
2022/07/17 00:28:49;;;;;;;7.03;2.33;;;;;;;14.38;73.99;102590.69;5091534;28;20107;-58
2022/07/17 00:31:15;;;;;;;6.33;2.30;;;;;;;14.35;74.11;102572.28;5090813;28;20455;-59
2022/07/17 00:33:41;;;;;;;6.70;2.60;;;;;;;14.48;74.04;102587.22;5091452;28;20317;-59
2022/07/17 00:36:06;;;;;;;8.82;3.10;;;;;;;14.34;73.83;102557.34;5094365;28;20055;-59
2022/07/17 00:38:32;;;;;;;7.03;2.67;;;;;;;14.48;73.82;102574.03;5094213;28;20074;-60
2022/07/17 00:40:58;;;;;;;6.80;2.65;;;;;;;14.46;73.62;102581.06;5094396;28;21393;-59
2022/07/17 00:43:24;;;;;;;9.48;2.95;;;;;;;14.46;73.68;102578.44;5093966;28;20471;-58
2022/07/17 00:46:00;;;;;;;4.90;2.33;;;;;;;14.41;73.81;102583.69;5094089;28;20032;-58
2022/07/17 00:48:26;;;;;;;6.47;2.58;;;;;;;14.38;74.06;102588.06;5093942;28;20039;-59
2022/07/17 00:50:52;;;;;;;7.05;3.00;;;;;;;14.30;74.21;102585.44;5094277;28;20039;-59
2022/07/17 00:53:17;;;;;;;10.20;2.90;;;;;;;14.24;74.65;102586.31;5093719;28;20113;-58
2022/07/17 00:55:46;;;;;;;7.78;3.22;;;;;;;14.13;75.06;102588.09;5093834;28;20074;-58
2022/07/17 00:58:18;;;;;;;5.47;3.05;;;;;;;14.14;74.81;102576.69;5093943;28;20060;-58
2022/07/17 01:00:43;;;;;;;;;;;;;;;14.17;72.56;102581.94;5094522;28;20391;-58
2022/07/17 01:03:09;;;;;;;7.07;3.10;;;;;;;14.00;75.31;102580.19;5094041;28;19965;-58
2022/07/17 01:05:34;;;;;;;7.90;3.47;;;;;;;13.77;76.47;102582.81;5093908;28;20057;-59
2022/07/17 01:08:00;;;;;;;6.13;3.60;;;;;;;13.69;77.02;102581.91;5093693;28;20036;-58
2022/07/17 01:10:25;;;;;;;9.10;3.60;;;;;;;13.54;77.54;102574.88;5093767;28;20032;-59
2022/07/17 01:12:50;;;;;;;6.47;3.50;;;;;;;13.46;78.03;102569.59;5093632;28;20445;-58
2022/07/17 01:15:16;;;;;;;9.95;3.45;;;;;;;13.48;78.18;102562.59;5093617;28;20031;-58
2022/07/17 01:17:42;;;;;;;6.13;3.42;;;;;;;13.41;78.52;102568.72;5093636;28;20032;-59
2022/07/17 01:20:09;;;;;;;9.00;3.28;;;;;;;13.36;78.92;102569.56;5093644;28;20044;-58
2022/07/17 01:22:42;;;;;;;6.78;3.50;;;;;;;13.40;78.48;102571.34;5093588;28;20046;-58
2022/07/17 01:25:08;;;;;;;8.40;3.30;;;;;;;13.34;78.40;102553.78;5093681;28;20031;-58
2022/07/17 01:27:33;;;;;;;6.63;3.50;;;;;;;13.45;77.92;102554.69;5093502;28;20393;-59
2022/07/17 01:29:58;;;;;;;9.93;4.80;;;;;;;13.59;78.02;102576.63;5057213;28;1032445;-58
2022/07/17 01:32:38;;;;;;;8.05;3.70;;;;;;;13.62;77.37;102562.63;5094715;28;20388;-59
2022/07/17 01:35:04;;;;;;;9.70;3.42;;;;;;;13.44;77.80;102565.22;5094601;28;20096;-58
2022/07/17 01:37:30;;;;;;;5.63;3.40;;;;;;;13.36;78.60;102557.28;5094433;28;20036;-59
2022/07/17 01:39:56;;;;;;;10.15;3.80;;;;;;;13.30;78.93;102559.03;5094271;28;20363;-58
2022/07/17 01:42:22;;;;;;;8.02;3.33;;;;;;;13.39;78.65;102557.31;5094313;28;20101;-59
2022/07/17 01:44:49;;;;;;;7.05;3.25;;;;;;;13.36;78.83;102557.28;5093998;28;20031;-59
2022/07/17 01:47:17;;;;;;;8.48;3.40;;;;;;;13.33;78.80;102561.69;5094419;28;20039;-59
2022/07/17 01:49:47;;;;;;;5.70;3.28;;;;;;;13.23;78.90;102563.41;5094413;28;20081;-58
2022/07/17 01:52:12;;;;;;;10.10;3.38;;;;;;;13.14;79.38;102571.22;5094441;28;20139;-58
2022/07/17 01:54:39;;;;;;;10.60;3.25;;;;;;;13.06;79.89;102567.69;5094257;28;20111;-58
2022/07/17 01:57:04;;;;;;;5.50;3.30;;;;;;;13.01;79.85;102577.28;5094069;28;20131;-58
2022/07/17 01:59:29;;;;;;;9.10;3.55;;;;;;;12.92;80.07;102578.13;5094021;28;20180;-58
2022/07/17 02:01:54;;;;;;;7.03;4.00;;;;;;;12.77;81.00;102583.31;5094155;28;20032;-58
2022/07/17 02:04:20;;;;;;;6.60;3.60;;;;;;;12.74;81.33;102589.44;5093991;28;20039;-58
2022/07/17 02:06:45;;;;;;;9.63;3.50;;;;;;;12.61;81.84;102589.34;5093854;28;20046;-58
2022/07/17 02:09:10;;;;;;;6.57;3.30;;;;;;;12.57;82.33;102591.09;5093713;28;20036;-58
2022/07/17 02:11:35;;;;;;;7.82;3.55;;;;;;;12.56;82.90;102586.69;5093728;28;20036;-59
2022/07/17 02:14:01;;;;;;;10.27;4.30;;;;;;;12.75;81.95;102585.06;5093778;28;20046;-59
2022/07/17 02:16:26;;;;;;;6.80;3.60;;;;;;;12.87;81.49;102580.75;5093834;28;20046;-58
2022/07/17 02:18:52;;;;;;;7.28;3.83;;;;;;;12.99;80.81;102579.06;5093085;28;20124;-59
2022/07/17 02:21:17;;;;;;;6.28;3.47;;;;;;;12.99;80.41;102579.06;5093520;28;20094;-58
2022/07/17 02:23:42;;;;;;;8.13;3.65;;;;;;;12.76;80.92;102574.56;5093628;28;20455;-58
2022/07/17 02:26:08;;;;;;;8.27;3.67;;;;;;;12.63;81.40;102592.88;5093613;28;20115;-58
2022/07/17 02:28:34;;;;;;;5.78;3.60;;;;;;;12.45;82.05;102588.38;5093663;28;20040;-58
2022/07/17 02:30:59;;;;;;;9.32;3.63;;;;;;;12.47;82.25;102591.88;5093302;28;20051;-59
2022/07/17 02:33:24;;;;;;;8.95;3.95;;;;;;;12.55;81.72;102582.31;5093287;28;20054;-58
2022/07/17 02:35:50;;;;;;;7.07;3.65;;;;;;;12.58;81.88;102578.81;5093272;28;20031;-58
2022/07/17 02:38:15;;;;;;;6.28;3.50;;;;;;;12.43;82.20;102580.50;5093176;28;20065;-59
2022/07/17 02:40:41;;;;;;;10.02;4.07;;;;;;;12.39;82.89;102575.19;5093131;28;20024;-58
2022/07/17 02:43:07;;;;;;;10.52;3.75;;;;;;;12.27;83.13;102583.00;5093349;28;20061;-58
2022/07/17 02:45:32;;;;;;;8.05;3.55;;;;;;;12.35;83.08;102571.66;5093230;28;20427;-58
2022/07/17 02:47:57;;;;;;;6.95;3.33;;;;;;;12.46;82.57;102566.50;5093172;28;20040;-58
2022/07/17 02:50:23;;;;;;;6.30;3.75;;;;;;;12.53;82.09;102563.91;5092904;28;20124;-58
2022/07/17 02:52:49;;;;;;;5.90;3.80;;;;;;;12.48;82.42;102567.38;5093091;28;20043;-59
2022/07/17 02:55:16;;;;;;;7.07;4.50;;;;;;;12.56;82.28;102568.31;5093092;28;20118;-58
2022/07/17 02:57:42;;;;;;;7.65;3.63;;;;;;;12.52;82.21;102561.28;5092191;28;20060;-58
2022/07/17 03:00:10;;;;;;;6.40;3.92;;;;;;;12.63;81.90;102574.50;5093055;28;20128;-58
2022/07/17 03:02:36;;;;;;;6.15;3.97;;;;;;;12.67;81.50;102569.25;5093013;28;20059;-58
2022/07/17 03:05:01;;;;;;;10.77;3.92;;;;;;;12.67;81.34;102569.25;5092856;28;20063;-57
2022/07/17 03:07:26;;;;;;;6.13;3.85;;;;;;;12.42;82.12;102576.13;5092562;28;20132;-58
2022/07/17 03:09:52;;;;;;;5.85;3.83;;;;;;;12.32;82.48;102579.53;5092613;28;20047;-57
2022/07/17 03:12:17;;;;;;;7.50;3.75;;;;;;;12.28;82.69;102577.78;5092631;28;20463;-59
2022/07/17 03:14:42;;;;;;;4.70;3.90;;;;;;;12.19;83.07;102582.94;5092811;28;20085;-58
2022/07/17 03:17:08;;;;;;;9.05;3.95;;;;;;;12.16;83.34;102599.53;5092456;28;20430;-59
2022/07/17 03:19:33;;;;;;;7.32;4.05;;;;;;;12.08;83.78;102590.72;5092527;28;20047;-58
2022/07/17 03:21:59;;;;;;;6.85;3.80;;;;;;;12.16;83.81;102596.91;5092391;28;20039;-58
2022/07/17 03:24:24;;;;;;;7.88;3.80;;;;;;;12.26;83.11;102591.75;5092601;28;20028;-58
2022/07/17 03:26:49;;;;;;;7.32;3.97;;;;;;;12.35;82.88;102594.41;5092449;28;20122;-58
2022/07/17 03:29:17;;;;;;;8.40;4.30;;;;;;;12.41;82.58;102591.84;5092209;28;20439;-59
2022/07/17 03:31:46;;;;;;;9.00;4.47;;;;;;;12.36;82.59;102589.19;5091754;28;20139;-59
2022/07/17 03:34:12;;;;;;;8.68;4.03;;;;;;;12.36;82.68;102583.94;5092185;28;20096;-58
2022/07/17 03:36:37;;;;;;;6.43;3.90;;;;;;;12.33;82.32;102585.66;5092081;28;20039;-58
2022/07/17 03:39:03;;;;;;;9.27;4.60;;;;;;;12.15;82.74;102589.88;5092109;28;20063;-58
2022/07/17 03:41:28;;;;;;;8.68;4.35;;;;;;;12.02;83.55;102579.28;5092090;28;20043;-58
2022/07/17 03:43:54;;;;;;;8.18;4.35;;;;;;;12.06;83.73;102578.47;5092236;28;20760;-58
2022/07/17 03:46:19;;;;;;;7.93;4.40;;;;;;;12.16;83.08;102583.78;5091982;28;20070;-59
2022/07/17 03:48:44;;;;;;;7.40;4.47;;;;;;;12.17;82.94;102580.28;5091727;28;20096;-58
2022/07/17 03:51:10;;;;;;;5.45;4.07;;;;;;;12.15;83.06;102578.50;5091919;28;20031;-59
2022/07/17 03:53:35;;;;;;;6.22;3.90;;;;;;;12.15;82.74;102579.41;5092016;28;20042;-59
2022/07/17 03:56:00;;;;;;;7.38;3.92;;;;;;;12.02;83.06;102585.41;5091909;28;20035;-59
2022/07/17 03:58:26;;;;;;;6.80;4.28;;;;;;;12.02;83.24;102569.66;5091915;28;20359;-59
2022/07/17 04:00:51;;;;;;;6.80;4.00;;;;;;;12.09;83.13;102576.75;5091877;28;20089;-59
2022/07/17 04:03:17;;;;;;;8.73;4.15;;;;;;;12.08;82.89;102571.47;5091684;28;20110;-58
2022/07/17 04:05:42;;;;;;;6.38;4.22;;;;;;;12.14;83.20;102589.88;5091810;28;20515;-58
2022/07/17 04:08:07;;;;;;;7.55;3.90;;;;;;;12.22;82.63;102589.94;5091549;28;20063;-58
2022/07/17 04:10:33;;;;;;;6.45;4.60;;;;;;;12.05;83.71;102593.31;5091774;28;20088;-58
2022/07/17 04:12:58;;;;;;;9.70;4.43;;;;;;;12.09;83.38;102597.72;5091817;28;20466;-58
2022/07/17 04:18:08;;;;;;;7.70;3.90;;;;;;;12.15;83.42;102603.00;5091341;28;20097;-58
2022/07/17 04:20:33;;;;;;;11.68;4.65;;;;;;;12.13;83.74;102606.50;5091713;28;20443;-58
2022/07/17 04:23:00;;;;;;;10.07;4.22;;;;;;;12.20;83.91;102610.94;5091608;28;20422;-59
2022/07/17 04:25:25;;;;;;;6.70;4.10;;;;;;;12.19;83.80;102610.06;5091732;28;20058;-59
2022/07/17 04:27:50;;;;;;;10.77;4.63;;;;;;;12.20;83.28;102606.56;5091672;28;20039;-59
2022/07/17 04:30:16;;;;;;;7.53;4.43;;;;;;;12.20;83.61;102603.94;5091433;28;20095;-59
2022/07/17 04:32:41;;;;;;;10.68;4.35;;;;;;;12.31;83.35;102600.50;5091475;28;20048;-58
2022/07/17 04:35:06;;;;;;;7.60;4.78;;;;;;;12.33;83.07;102612.78;5091495;28;20040;-58
2022/07/17 04:37:32;;;;;;;7.88;5.05;;;;;;;12.23;83.73;102607.47;5091515;28;20031;-59
2022/07/17 04:39:57;;;;;;;11.73;4.50;;;;;;;12.23;83.65;102608.34;5091369;28;20032;-58
2022/07/17 04:42:22;;;;;;;11.05;4.45;;;;;;;12.34;83.54;102603.16;5091657;28;20032;-58
2022/07/17 04:44:48;;;;;;;7.53;5.43;;;;;;;12.51;83.21;102601.53;5091421;28;20036;-58
2022/07/17 04:47:13;;;;;;;6.88;4.72;;;;;;;12.64;82.47;102594.63;5091637;28;20651;-58
2022/07/17 04:49:38;;;;;;;8.63;5.05;;;;;;;12.73;82.36;102603.44;5091252;28;20036;-58
2022/07/17 04:52:04;;;;;;;8.00;4.78;;;;;;;12.73;82.20;102598.19;5091458;28;20032;-59
2022/07/17 04:54:29;;;;;;;9.55;5.32;;;;;;;12.61;82.95;102606.00;5091306;28;20062;-59
2022/07/17 04:56:55;;;;;;;9.48;5.13;;;;;;;12.61;83.33;102615.63;5091386;28;20367;-58
2022/07/17 04:59:20;;;;;;;10.88;5.60;;;;;;;12.65;83.33;102618.25;5091238;28;20358;-58
2022/07/17 05:01:45;;;;;;;9.48;5.45;;;;;;;12.67;83.50;102623.53;5091406;28;20028;-58
2022/07/17 05:04:10;;;;;;;12.48;5.72;;;;;;;12.68;83.53;102626.16;5090976;28;20365;-58
2022/07/17 05:06:36;;;;;;;9.13;5.20;;;;;;;12.67;83.51;102624.41;5091248;28;20029;-58
2022/07/17 05:09:01;;;;;;;10.05;5.45;;;;;;;12.69;83.85;102633.16;5091271;28;20435;-58
2022/07/17 05:11:26;;;;;;;10.75;5.70;;;;;;;12.71;83.73;102625.31;5091010;28;20036;-58
2022/07/17 05:13:52;;;;;;;9.63;5.20;;;;;;;12.80;83.38;102628.00;5091090;28;20036;-59
2022/07/17 05:16:17;;;;;;;11.10;4.82;;;;;;;12.84;83.55;102625.38;5090881;28;20394;-58
2022/07/17 05:18:42;;;;;;;7.53;5.25;;;;;;;12.82;83.63;102619.22;5090899;28;20040;-58
2022/07/17 05:21:08;;;;;;;9.40;5.30;;;;;;;12.84;83.84;102614.00;5093336;28;20041;-59
2022/07/17 05:23:33;;;;;;;11.18;5.53;;;;;;;12.93;83.52;102614.06;5094853;28;20144;-59
2022/07/17 05:25:58;;;;;;;10.10;5.40;;;;;;;12.94;83.83;102612.31;5094770;28;20035;-59
2022/07/17 05:28:24;;;;;;;9.40;5.82;;;;;;;12.94;84.04;102618.44;5094806;28;20032;-59
2022/07/17 05:30:49;;;;;;;12.82;5.80;;;;;;;12.96;84.22;102619.34;5094203;28;20071;-58
2022/07/17 05:33:14;;;;;;;12.77;5.40;;;;;;;13.08;83.66;102616.75;5094441;28;20028;-58
2022/07/17 05:35:39;;;;;;;10.15;4.90;;;;;;;13.19;83.67;102614.19;5094297;28;20058;-58
2022/07/17 05:38:06;;;;;;;9.77;5.10;;;;;;;13.23;83.41;102615.97;5094287;28;20039;-59
2022/07/17 05:40:31;;;;;;;12.55;4.90;;;;;;;13.30;83.29;102616.88;5094641;28;20040;-58
2022/07/17 05:42:58;;;;;;;9.23;5.32;;;;;;;13.39;82.74;102615.16;5094679;28;20030;-58
2022/07/17 05:45:23;;;;;;;12.13;5.53;;;;;;;13.42;82.62;102620.44;5094366;28;20044;-57
2022/07/17 05:47:48;;;;;;;8.88;5.10;;;;;;;13.47;82.64;102600.28;5094389;28;20110;-59
2022/07/17 05:50:13;;;;;;;8.57;4.63;;;;;;;13.56;81.78;102588.91;5094379;28;20081;-57
2022/07/17 05:52:39;;;;;;;9.73;4.50;;;;;;;13.59;81.58;102597.69;5094373;28;20439;-58
2022/07/17 05:55:04;;;;;;;7.35;4.75;;;;;;;13.57;81.58;102609.94;5094331;28;20043;-58
2022/07/17 05:57:30;;;;;;;7.70;4.82;;;;;;;13.61;81.75;102610.84;5094256;28;20038;-58
2022/07/17 05:59:55;;;;;;;13.38;4.90;;;;;;;13.70;81.64;102602.06;5093439;28;20036;-59
2022/07/17 06:02:20;;;;;;;9.60;5.50;;;;;;;13.75;81.33;102605.59;5104378;28;20115;-58
2022/07/17 06:04:45;;;;;;;10.05;5.55;;;;;;;13.83;80.90;102599.50;5114384;28;20438;-58
2022/07/17 06:07:11;;;;;;;7.43;5.28;;;;;;;13.93;80.53;102597.72;5114341;28;20096;-58
2022/07/17 06:09:37;;;;;;;7.47;5.40;;;;;;;14.04;79.91;102597.72;5114553;28;20031;-58
2022/07/17 06:12:02;;;;;;;9.85;5.20;;;;;;;14.12;79.32;102577.56;5114322;28;20066;-58
2022/07/17 06:14:27;;;;;;;10.30;5.28;;;;;;;14.51;78.11;102579.31;5114124;28;20119;-60
2022/07/17 06:16:53;;;;;;;10.18;4.95;;;;;;;14.66;77.79;102583.66;5114230;28;20096;-59
2022/07/17 06:19:18;;;;;;;11.85;5.18;;;;;;;14.63;77.87;102584.53;5114000;28;20140;-59
2022/07/17 06:21:43;;;;;;;11.07;5.35;;;;;;;14.60;77.47;102580.16;5114079;28;20063;-59
2022/07/17 06:24:09;;;;;;;11.30;5.38;;;;;;;14.61;77.24;102583.66;5114050;28;20350;-59
2022/07/17 06:26:34;;;;;;;10.40;4.70;;;;;;;14.63;77.70;102582.78;5114217;28;20023;-59
2022/07/17 06:28:59;;;;;;;10.18;5.07;;;;;;;14.66;77.91;102581.91;5109999;28;20101;-59
2022/07/17 06:31:25;;;;;;;7.15;5.03;;;;;;;14.73;77.13;102593.28;5092272;28;20587;-59
2022/07/17 06:33:50;;;;;;;11.07;5.75;;;;;;;14.89;76.63;102598.50;5093315;28;20668;-59
2022/07/17 06:36:15;;;;;;;8.30;5.82;;;;;;;15.06;75.42;102610.78;5093380;28;20043;-58
2022/07/17 06:38:40;;;;;;;9.27;5.40;;;;;;;15.03;76.01;102609.03;5093489;28;20036;-58
2022/07/17 06:41:06;;;;;;;10.90;5.60;;;;;;;15.05;75.88;102607.28;5093449;28;20039;-58
2022/07/17 06:43:31;;;;;;;9.75;5.68;;;;;;;15.10;75.14;102607.22;5093442;28;20047;-59
2022/07/17 06:45:56;;;;;;;10.32;5.72;;;;;;;15.07;75.01;102621.31;5093261;28;20031;-59
2022/07/17 06:48:22;;;;;;;12.27;5.55;;;;;;;15.06;74.86;102616.06;5092946;28;20093;-58
2022/07/17 06:50:47;;;;;;;12.88;5.53;;;;;;;15.06;75.34;102621.34;5093269;28;20024;-58
2022/07/17 06:53:13;;;;;;;6.72;5.30;;;;;;;15.10;75.39;102620.41;5103063;28;20047;-58
2022/07/17 06:55:38;;;;;;;11.32;5.25;;;;;;;15.12;75.20;102624.81;5113498;28;20401;-58
2022/07/17 06:58:04;;;;;;;9.55;5.13;;;;;;;15.17;75.78;102625.69;5113399;28;20039;-58
2022/07/17 07:00:30;;;;;;;9.15;5.25;;;;;;;15.21;75.73;102631.81;5113180;28;20027;-59
2022/07/17 07:02:55;;;;;;;7.60;5.25;;;;;;;15.26;76.13;102624.75;5113262;28;20042;-58
2022/07/17 07:05:20;;;;;;;12.38;4.82;;;;;;;15.24;75.71;102621.22;5112996;28;20032;-58
2022/07/17 07:07:46;;;;;;;10.63;4.80;;;;;;;15.36;74.77;102631.75;5113186;28;20035;-58
2022/07/17 07:10:12;;;;;;;11.50;5.00;;;;;;;15.40;74.25;102636.13;5113135;28;20040;-58
2022/07/17 07:12:37;;;;;;;7.15;4.35;;;;;;;15.44;73.56;102640.50;5113313;28;20063;-58
2022/07/17 07:15:04;;;;;;;13.77;4.50;;;;;;;15.46;73.46;102646.63;5112984;28;20343;-58
2022/07/17 07:17:31;;;;;;;10.85;4.53;;;;;;;15.56;74.44;102653.69;5112991;28;20406;-53
2022/07/17 07:19:56;;;;;;;9.00;4.60;;;;;;;15.64;73.71;102656.25;5112935;28;20035;-53
2022/07/17 07:22:22;;;;;;;7.68;4.65;;;;;;;15.73;73.92;102652.72;5112841;28;20458;-57
2022/07/17 07:24:47;;;;;;;13.93;5.10;;;;;;;15.82;72.85;102648.22;5112797;28;20110;-53
2022/07/17 07:27:12;;;;;;;8.73;4.70;;;;;;;15.84;73.20;102646.47;5112915;28;20280;-60
2022/07/17 07:29:37;;;;;;;11.35;4.88;;;;;;;15.83;73.05;102642.06;5112477;28;20133;-61
2022/07/17 07:32:03;;;;;;;9.83;4.77;;;;;;;16.13;72.54;102638.31;5112624;28;20035;-60
2022/07/17 07:34:29;;;;;;;11.70;4.40;;;;;;;16.58;70.31;102633.56;5112448;28;20265;-60
2022/07/17 07:36:54;;;;;;;8.55;4.07;;;;;;;16.91;67.46;102641.16;5112431;28;20114;-61
2022/07/17 07:39:19;;;;;;;7.78;4.00;;;;;;;16.95;67.34;102639.38;5112508;28;20442;-58
2022/07/17 07:41:44;;;;;;;11.18;3.78;;;;;;;16.84;66.79;102639.47;5112419;28;20063;-58
2022/07/17 07:44:10;;;;;;;9.73;4.18;;;;;;;16.73;67.81;102643.13;5112063;28;20028;-59
2022/07/17 07:46:35;;;;;;;6.95;3.20;;;;;;;16.65;67.81;102652.00;5112389;28;20027;-59
2022/07/17 07:49:00;;;;;;;7.85;3.15;;;;;;;16.61;66.42;102646.75;5112257;28;20442;-59
2022/07/17 07:51:26;;;;;;;6.18;2.60;;;;;;;16.61;66.56;102646.75;5112292;28;20028;-60
2022/07/17 07:53:51;;;;;;;6.65;2.78;;;;;;;16.61;67.35;102654.66;5112339;28;20458;-62
2022/07/17 07:56:16;;;;;;;8.15;2.80;;;;;;;16.66;65.86;102650.22;5112124;28;20028;-60
2022/07/17 07:58:41;;;;;;;6.15;2.72;;;;;;;16.68;65.64;102648.44;5108862;28;20477;-56
2022/07/17 08:01:07;;;;;;;4.77;2.30;;;;;;;16.67;64.68;102651.97;5091314;28;20101;-58
2022/07/17 08:03:32;;;;;;;8.10;1.85;;;;;;;16.66;63.51;102653.75;5091708;28;20280;-59
2022/07/17 08:05:57;;;;;;;7.50;2.20;;;;;;;16.66;63.97;102652.88;5091754;28;20424;-58
2022/07/17 08:08:22;;;;;;;10.00;2.40;;;;;;;16.62;65.38;102633.47;5091792;28;20043;-59
2022/07/17 08:10:48;;;;;;;8.73;3.15;;;;;;;16.81;64.56;102646.56;5097518;28;20065;-59
2022/07/17 08:13:13;;;;;;;6.07;3.20;;;;;;;16.82;65.07;102645.66;5102318;28;20115;-59
2022/07/17 08:15:38;;;;;;;5.82;3.53;;;;;;;16.91;64.89;102658.81;5101305;28;20787;-59
2022/07/17 08:18:04;;;;;;;8.02;4.43;;;;;;;17.00;66.32;102662.22;5100118;28;20033;-59
2022/07/17 08:20:29;;;;;;;7.22;4.20;;;;;;;17.07;66.35;102652.44;5105569;28;20028;-60
2022/07/17 08:22:55;;;;;;;8.40;3.88;;;;;;;17.18;65.48;102657.59;5111903;28;20123;-60
2022/07/17 08:25:20;;;;;;;9.10;3.38;;;;;;;17.24;65.38;102657.53;5105190;28;20077;-59
2022/07/17 08:27:45;;;;;;;7.43;3.47;;;;;;;17.26;64.27;102650.47;5091585;28;20108;-60
2022/07/17 08:30:12;;;;;;;6.03;3.50;;;;;;;17.23;64.40;102655.78;5091079;28;20048;-58
2022/07/17 08:32:38;;;;;;;6.28;3.00;;;;;;;17.31;65.12;102654.81;5091463;28;20028;-58
2022/07/17 08:35:04;;;;;;;6.47;2.63;;;;;;;17.47;64.97;102652.84;5091387;28;20332;-60
2022/07/17 08:37:29;;;;;;;4.45;2.55;;;;;;;17.49;64.27;102644.88;5091209;28;20036;-59
2022/07/17 08:39:55;;;;;;;5.07;2.03;;;;;;;17.55;61.42;102652.72;5108052;28;20035;-60
2022/07/17 08:42:21;;;;;;;6.20;2.60;;;;;;;17.60;62.19;102650.91;5108919;28;20031;-58
2022/07/17 08:44:46;;;;;;;6.72;2.33;;;;;;;17.52;61.61;102629.81;5099189;28;20042;-59
2022/07/17 08:47:14;;;;;;;6.10;2.10;;;;;;;17.65;61.25;102639.38;5089373;28;20512;-60
2022/07/17 08:49:48;;;;;;;6.22;1.92;;;;;;;17.74;60.40;102643.66;5089955;28;20135;-58
2022/07/17 08:52:14;;;;;;;4.55;1.63;;;;;;;17.71;58.68;102641.06;5090187;28;20089;-58
2022/07/17 08:54:40;;;;;;;3.80;1.92;;;;;;;17.74;59.81;102633.94;5095548;28;20089;-60
2022/07/17 08:57:06;;;;;;;5.70;2.15;;;;;;;17.92;60.89;102640.75;5104067;28;20320;-60
2022/07/17 08:59:31;;;;;;;4.00;2.00;;;;;;;18.00;59.87;102649.47;5104568;28;20108;-58
2022/07/17 09:02:00;;;;;;;4.68;1.95;;;;;;;18.08;60.08;102639.59;5084980;28;20096;-59
2022/07/17 09:04:26;;;;;;;7.05;2.10;;;;;;;18.24;59.24;102645.53;5095009;28;20514;-58
2022/07/17 09:07:03;;;;;;;6.80;2.22;;;;;;;18.46;59.48;102639.88;5094670;28;20092;-59
2022/07/17 09:09:28;;;;;;;7.97;2.10;;;;;;;18.60;58.29;102640.53;5095165;28;20119;-59
2022/07/17 09:11:55;;;;;;;38.53;8.77;;;;;;;18.83;55.53;102646.28;5076722;28;20161;-59
2022/07/17 09:14:21;;;;;;;7.90;2.05;;;;;;;19.06;54.41;102636.09;5094873;28;20020;-59
2022/07/17 09:16:58;;;;;;;5.82;1.67;;;;;;;20.36;52.39;102636.72;5094820;28;20035;-60
2022/07/17 09:19:35;;;;;;;5.78;1.85;;;;;;;21.75;49.22;102622.97;5109120;28;20058;-59
2022/07/17 09:22:24;;;;;;;4.68;1.90;;;;;;;23.00;47.46;102625.88;5115315;28;20335;-59
2022/07/17 09:24:55;;;;;;;7.07;1.70;;;;;;;24.73;42.50;102625.97;5114819;28;20408;-59
2022/07/17 09:27:23;;;;;;;5.63;1.73;;;;;;;25.26;40.32;102621.75;5104714;28;20031;-59
2022/07/17 09:29:52;;;;;;;5.30;1.35;;;;;;;25.50;38.86;102617.03;5097761;28;20070;-60
2022/07/17 09:32:18;;;;;;;4.65;1.80;;;;;;;25.44;38.27;102611.13;5094731;28;20110;-60
2022/07/17 09:34:48;;;;;;;3.60;1.73;;;;;;;25.24;37.57;102622.78;5094643;28;20038;-59
2022/07/17 09:37:13;;;;;;;4.45;1.63;;;;;;;24.98;38.57;102623.94;5102431;28;20067;-60
2022/07/17 09:39:39;;;;;;;7.90;1.60;;;;;;;24.32;40.12;102623.28;5114525;28;20701;-59
2022/07/17 09:42:06;;;;;;;4.10;1.70;;;;;;;23.67;39.61;102608.13;5112313;28;20024;-61
2022/07/17 09:44:31;;;;;;;3.38;1.80;;;;;;;23.08;41.22;102627.31;5094873;28;20168;-59
2022/07/17 09:46:57;;;;;;;5.72;2.20;;;;;;;22.68;42.10;102622.53;5099113;28;20127;-60
2022/07/17 09:49:26;;;;;;;4.68;1.90;;;;;;;22.37;42.92;102624.50;5114567;28;20031;-60
2022/07/17 09:51:52;;;;;;;4.40;1.90;;;;;;;22.35;42.99;102626.34;5114477;28;20041;-59
2022/07/17 09:54:21;;;;;;;5.30;2.00;;;;;;;22.12;43.11;102616.50;5114035;28;20031;-60
2022/07/17 09:56:51;;;;;;;6.60;2.50;;;;;;;22.14;43.37;102626.19;5114667;28;20036;-59
2022/07/17 09:59:17;;;;;;;5.65;2.17;;;;;;;22.09;44.47;102620.13;5114485;28;20024;-59
2022/07/17 10:01:48;;;;;;;5.07;1.98;;;;;;;22.17;42.67;102617.19;5114629;28;20119;-61
2022/07/17 10:04:15;;;;;;;4.80;1.60;;;;;;;22.20;42.27;102615.28;5114149;28;20054;-59
2022/07/17 10:06:40;;;;;;;5.22;1.88;;;;;;;22.05;42.78;102622.94;5114295;28;20036;-59
2022/07/17 10:09:06;;;;;;;4.85;2.42;;;;;;;22.13;43.16;102620.91;5114207;28;20038;-60
2022/07/17 10:11:35;;;;;;;5.30;1.77;;;;;;;22.36;44.79;102620.97;5099171;28;20050;-59
2022/07/17 10:14:11;;;;;;;5.95;2.30;;;;;;;22.44;44.64;102620.72;5097444;28;20046;-59
2022/07/17 10:16:38;;;;;;;4.88;1.67;;;;;;;22.65;43.85;102621.78;5093717;28;20043;-59
2022/07/17 10:19:14;;;;;;;4.28;1.75;;;;;;;22.65;43.07;102624.44;5093653;28;20044;-58
2022/07/17 10:21:57;;;;;;;3.97;1.60;;;;;;;22.69;42.70;102624.25;5093668;28;20036;-58
2022/07/17 10:24:23;;;;;;;5.22;1.85;;;;;;;22.88;42.03;102612.03;5093705;28;20054;-59
2022/07/17 10:26:51;;;;;;;6.38;1.80;;;;;;;22.80;40.79;102618.59;5093010;28;20035;-59
2022/07/17 10:29:37;;;;;;;5.10;1.90;;;;;;;22.95;41.97;102620.69;5093469;28;20039;-58
2022/07/17 10:32:07;;;;;;;7.28;1.80;;;;;;;23.06;40.61;102621.16;5093452;28;20075;-59
2022/07/17 10:34:38;;;;;;;5.93;1.90;;;;;;;23.02;41.22;102621.34;5093289;28;20413;-59
2022/07/17 10:37:24;;;;;;;5.63;1.60;;;;;;;23.15;41.62;102617.28;5093452;28;20020;-59
2022/07/17 10:39:58;;;;;;;5.75;1.92;;;;;;;23.27;41.46;102617.69;5093060;28;20032;-58
2022/07/17 10:42:42;;;;;;;4.65;1.63;;;;;;;23.40;41.38;102615.41;5093285;28;20038;-58
2022/07/17 10:45:21;;;;;;;5.90;1.70;;;;;;;23.27;41.76;102616.81;5093308;28;20040;-59
2022/07/17 10:47:56;;;;;;;3.83;1.45;;;;;;;23.47;41.19;102608.88;5093017;28;20374;-59
2022/07/17 10:50:30;;;;;;;4.10;1.70;;;;;;;23.73;41.29;102613.22;5093116;28;20047;-60
2022/07/17 10:53:01;;;;;;;8.10;1.98;;;;;;;23.97;40.19;102605.13;5093029;28;20032;-59
2022/07/17 10:55:27;;;;;;;5.25;1.90;;;;;;;23.93;37.78;102609.72;5093223;28;20441;-58
2022/07/17 10:57:54;;;;;;;5.00;1.88;;;;;;;23.98;37.73;102612.22;5092709;28;20086;-60
2022/07/17 11:00:19;;;;;;;6.47;2.13;;;;;;;23.96;39.89;102606.94;5092905;28;20081;-58
2022/07/17 11:02:45;;;;;;;7.30;2.10;;;;;;;23.97;39.38;102610.47;5092846;28;20405;-59
2022/07/17 11:05:13;;;;;;;4.88;1.70;;;;;;;24.06;39.60;102610.13;5092552;28;20279;-59
2022/07/17 11:07:52;;;;;;;5.55;1.70;;;;;;;24.12;40.04;102613.38;5092863;28;20208;-59
2022/07/17 11:10:18;;;;;;;4.68;1.75;;;;;;;24.17;37.78;102618.56;5092687;28;20103;-58
2022/07/17 11:12:43;;;;;;;3.63;1.60;;;;;;;24.18;38.81;102610.47;5092697;28;20127;-59
2022/07/17 11:15:09;;;;;;;5.18;1.85;;;;;;;24.18;38.71;102609.59;5092421;28;20036;-59
2022/07/17 11:17:34;;;;;;;7.10;1.80;;;;;;;23.95;38.56;102610.53;5091900;28;20092;-59
2022/07/17 11:20:01;;;;;;;3.30;1.92;;;;;;;23.80;37.51;102614.72;5092599;28;20043;-59
2022/07/17 11:22:29;;;;;;;5.50;1.80;;;;;;;23.81;39.17;102604.91;5092285;28;20435;-59
2022/07/17 11:24:55;;;;;;;4.55;1.80;;;;;;;23.87;38.26;102607.34;5092609;28;20036;-60